コペンハーゲン の空港の天気 - METARとTAF

コペンハーゲン国際空港 ( EKCH / CPH ) - デンマーク コペンハーゲン
飛行場実況気象(Metar)
観測時間12/15 19:50 CET (12/15 18:50 UTC)
風向・風速西南西 3m/s
視程10km以上
天気現象
少しの雲 雲底高度 1370m
全天の8割程度の雲 雲底高度 2040m
気温2℃
湿度100%
気圧996hPa
METAREKCH 151850Z 25006KT 9999 FEW045 BKN067 02/02 Q0996 NOSIG
過去の天気等 Google飛行場航空写真 Wunderground天気予報

過去48時間のMETAR

飛行場予報(TAF)
発表時間: 12/15 18:06 CET (12/15 17:06 UTC)
予報対象時間: 15日19時 CET ~ 16日19時 CET
風向・風速西 4m/s
視程10km以上
全天の4割程度の雲 雲底高度 300m
全天の8割程度の雲 雲底高度 460m
15日19時 CET ~ 16日2時 CET に一時的に
全天の8割程度の雲 雲底高度 240m
16日2時 CET ~ 16日9時 CET に一時的に
視程4,000m
天気現象しゅう雨雪
全天の8割程度の雲 雲底高度 150m
全天の4割程度の積乱雲 雲底高度 610m
16日13時 CET ~ 16日19時 CET に一時的に
視程4,000m
天気現象しゅう雨雪
全天の8割程度の雲 雲底高度 240m
全天の4割程度の積乱雲 雲底高度 610m
TAF EKCH 151706Z 1518/1618 27008KT 9999 SCT010 BKN015
TEMPO 1518/1601 BKN008
TEMPO 1601/1608 4000 SHRASN BKN005 SCT020CB
TEMPO 1612/1618 4000 SHRASN BKN008 SCT020CB